sensor_id;sensor_type;location;lat;lon;timestamp;P1;durP1;ratioP1;P2;durP2;ratioP2
31037;SDS011;17702;47.590;7.666;2024-02-15T00:00:39;5.82;;;4.43;;
31037;SDS011;17702;47.590;7.666;2024-02-15T00:03:05;12.40;;;5.38;;
31037;SDS011;17702;47.590;7.666;2024-02-15T00:05:33;7.55;;;4.40;;
31037;SDS011;17702;47.590;7.666;2024-02-15T00:08:02;9.55;;;5.32;;
31037;SDS011;17702;47.590;7.666;2024-02-15T00:10:28;10.68;;;4.63;;
31037;SDS011;17702;47.590;7.666;2024-02-15T00:12:54;5.10;;;4.22;;
31037;SDS011;17702;47.590;7.666;2024-02-15T00:15:20;8.43;;;4.00;;
31037;SDS011;17702;47.590;7.666;2024-02-15T00:17:45;5.40;;;4.20;;
31037;SDS011;17702;47.590;7.666;2024-02-15T00:20:13;4.43;;;3.67;;
31037;SDS011;17702;47.590;7.666;2024-02-15T00:22:39;4.88;;;3.33;;
31037;SDS011;17702;47.590;7.666;2024-02-15T00:25:08;5.30;;;3.30;;
31037;SDS011;17702;47.590;7.666;2024-02-15T00:27:36;5.95;;;3.58;;
31037;SDS011;17702;47.590;7.666;2024-02-15T00:30:02;8.38;;;3.95;;
31037;SDS011;17702;47.590;7.666;2024-02-15T00:32:32;4.63;;;4.03;;
31037;SDS011;17702;47.590;7.666;2024-02-15T00:34:58;6.13;;;3.15;;
31037;SDS011;17702;47.590;7.666;2024-02-15T00:37:23;5.38;;;4.00;;
31037;SDS011;17702;47.590;7.666;2024-02-15T00:39:49;3.53;;;2.95;;
31037;SDS011;17702;47.590;7.666;2024-02-15T00:42:14;7.13;;;3.50;;
31037;SDS011;17702;47.590;7.666;2024-02-15T00:44:40;5.28;;;3.67;;
31037;SDS011;17702;47.590;7.666;2024-02-15T00:47:06;4.53;;;3.03;;
31037;SDS011;17702;47.590;7.666;2024-02-15T00:49:34;6.93;;;3.88;;
31037;SDS011;17702;47.590;7.666;2024-02-15T00:52:00;4.15;;;3.42;;
31037;SDS011;17702;47.590;7.666;2024-02-15T00:54:26;5.43;;;2.85;;
31037;SDS011;17702;47.590;7.666;2024-02-15T00:56:52;4.43;;;3.30;;
31037;SDS011;17702;47.590;7.666;2024-02-15T00:59:17;4.10;;;3.70;;
31037;SDS011;17702;47.590;7.666;2024-02-15T01:01:43;4.97;;;3.83;;
31037;SDS011;17702;47.590;7.666;2024-02-15T01:04:09;7.43;;;4.50;;
31037;SDS011;17702;47.590;7.666;2024-02-15T01:06:35;4.68;;;4.20;;
31037;SDS011;17702;47.590;7.666;2024-02-15T01:09:01;4.57;;;4.10;;
31037;SDS011;17702;47.590;7.666;2024-02-15T01:11:28;5.38;;;4.05;;
31037;SDS011;17702;47.590;7.666;2024-02-15T01:13:55;5.25;;;4.75;;
31037;SDS011;17702;47.590;7.666;2024-02-15T01:16:20;7.90;;;4.00;;
31037;SDS011;17702;47.590;7.666;2024-02-15T01:18:49;5.38;;;4.50;;
31037;SDS011;17702;47.590;7.666;2024-02-15T01:21:15;6.40;;;4.22;;
31037;SDS011;17702;47.590;7.666;2024-02-15T01:23:42;5.20;;;4.70;;
31037;SDS011;17702;47.590;7.666;2024-02-15T01:26:09;7.05;;;4.28;;
31037;SDS011;17702;47.590;7.666;2024-02-15T01:28:37;4.90;;;4.05;;
31037;SDS011;17702;47.590;7.666;2024-02-15T01:31:02;7.95;;;3.70;;
31037;SDS011;17702;47.590;7.666;2024-02-15T01:33:28;4.22;;;3.83;;
31037;SDS011;17702;47.590;7.666;2024-02-15T01:35:54;6.85;;;4.57;;
31037;SDS011;17702;47.590;7.666;2024-02-15T01:38:19;5.03;;;4.10;;
31037;SDS011;17702;47.590;7.666;2024-02-15T01:40:46;4.90;;;4.18;;
31037;SDS011;17702;47.590;7.666;2024-02-15T01:43:12;8.60;;;5.43;;
31037;SDS011;17702;47.590;7.666;2024-02-15T01:45:37;5.03;;;3.47;;
31037;SDS011;17702;47.590;7.666;2024-02-15T01:48:03;3.90;;;3.47;;
31037;SDS011;17702;47.590;7.666;2024-02-15T01:50:30;7.72;;;3.55;;
31037;SDS011;17702;47.590;7.666;2024-02-15T01:52:59;7.03;;;3.35;;
31037;SDS011;17702;47.590;7.666;2024-02-15T01:55:26;7.30;;;3.75;;
31037;SDS011;17702;47.590;7.666;2024-02-15T01:57:52;5.30;;;3.58;;
31037;SDS011;17702;47.590;7.666;2024-02-15T02:00:18;8.43;;;4.18;;
31037;SDS011;17702;47.590;7.666;2024-02-15T02:02:44;5.35;;;3.58;;
31037;SDS011;17702;47.590;7.666;2024-02-15T02:05:10;5.22;;;3.63;;
31037;SDS011;17702;47.590;7.666;2024-02-15T02:07:39;3.88;;;3.35;;
31037;SDS011;17702;47.590;7.666;2024-02-15T02:10:04;4.78;;;3.60;;
31037;SDS011;17702;47.590;7.666;2024-02-15T02:12:32;5.25;;;3.75;;
31037;SDS011;17702;47.590;7.666;2024-02-15T02:14:57;5.15;;;3.63;;
31037;SDS011;17702;47.590;7.666;2024-02-15T02:17:24;4.13;;;3.72;;
31037;SDS011;17702;47.590;7.666;2024-02-15T02:19:49;5.78;;;3.60;;
31037;SDS011;17702;47.590;7.666;2024-02-15T02:22:15;3.92;;;3.53;;
31037;SDS011;17702;47.590;7.666;2024-02-15T02:27:31;5.05;;;3.25;;
31037;SDS011;17702;47.590;7.666;2024-02-15T02:29:57;5.40;;;2.65;;
31037;SDS011;17702;47.590;7.666;2024-02-15T02:32:24;4.78;;;2.95;;
31037;SDS011;17702;47.590;7.666;2024-02-15T02:34:51;6.97;;;2.92;;
31037;SDS011;17702;47.590;7.666;2024-02-15T02:37:19;5.90;;;3.63;;
31037;SDS011;17702;47.590;7.666;2024-02-15T02:39:45;4.70;;;3.42;;
31037;SDS011;17702;47.590;7.666;2024-02-15T02:42:10;3.70;;;3.05;;
31037;SDS011;17702;47.590;7.666;2024-02-15T02:44:36;4.70;;;3.03;;
31037;SDS011;17702;47.590;7.666;2024-02-15T02:47:01;3.72;;;3.40;;
31037;SDS011;17702;47.590;7.666;2024-02-15T02:49:27;3.67;;;3.15;;
31037;SDS011;17702;47.590;7.666;2024-02-15T02:51:52;4.15;;;3.13;;
31037;SDS011;17702;47.590;7.666;2024-02-15T02:54:18;5.32;;;3.28;;
31037;SDS011;17702;47.590;7.666;2024-02-15T02:56:43;4.78;;;3.17;;
31037;SDS011;17702;47.590;7.666;2024-02-15T02:59:10;5.95;;;3.20;;
31037;SDS011;17702;47.590;7.666;2024-02-15T03:01:35;5.20;;;3.03;;
31037;SDS011;17702;47.590;7.666;2024-02-15T03:04:01;5.35;;;3.58;;
31037;SDS011;17702;47.590;7.666;2024-02-15T03:06:27;4.00;;;3.60;;
31037;SDS011;17702;47.590;7.666;2024-02-15T03:08:53;4.15;;;3.58;;
31037;SDS011;17702;47.590;7.666;2024-02-15T03:11:21;4.45;;;3.45;;
31037;SDS011;17702;47.590;7.666;2024-02-15T03:13:47;5.95;;;4.20;;
31037;SDS011;17702;47.590;7.666;2024-02-15T03:16:13;10.38;;;3.70;;
31037;SDS011;17702;47.590;7.666;2024-02-15T03:18:39;5.75;;;3.50;;
31037;SDS011;17702;47.590;7.666;2024-02-15T03:21:06;5.78;;;3.30;;
31037;SDS011;17702;47.590;7.666;2024-02-15T03:23:32;4.10;;;3.38;;
31037;SDS011;17702;47.590;7.666;2024-02-15T03:25:58;3.40;;;3.10;;
31037;SDS011;17702;47.590;7.666;2024-02-15T03:28:23;3.60;;;3.15;;
31037;SDS011;17702;47.590;7.666;2024-02-15T03:30:49;5.53;;;2.85;;
31037;SDS011;17702;47.590;7.666;2024-02-15T03:33:15;5.10;;;2.95;;
31037;SDS011;17702;47.590;7.666;2024-02-15T03:35:41;6.55;;;3.25;;
31037;SDS011;17702;47.590;7.666;2024-02-15T03:38:07;4.05;;;3.00;;
31037;SDS011;17702;47.590;7.666;2024-02-15T03:40:32;3.38;;;3.08;;
31037;SDS011;17702;47.590;7.666;2024-02-15T03:42:58;5.60;;;3.00;;
31037;SDS011;17702;47.590;7.666;2024-02-15T03:45:24;3.65;;;2.92;;
31037;SDS011;17702;47.590;7.666;2024-02-15T03:47:52;4.95;;;3.05;;
31037;SDS011;17702;47.590;7.666;2024-02-15T03:50:18;5.15;;;3.13;;
31037;SDS011;17702;47.590;7.666;2024-02-15T03:52:46;3.88;;;3.35;;
31037;SDS011;17702;47.590;7.666;2024-02-15T03:55:12;10.32;;;3.78;;
31037;SDS011;17702;47.590;7.666;2024-02-15T03:57:38;5.20;;;3.25;;
31037;SDS011;17702;47.590;7.666;2024-02-15T04:00:11;7.50;;;3.90;;
31037;SDS011;17702;47.590;7.666;2024-02-15T04:02:45;5.85;;;3.50;;
31037;SDS011;17702;47.590;7.666;2024-02-15T04:05:12;5.78;;;3.90;;
31037;SDS011;17702;47.590;7.666;2024-02-15T04:07:38;4.25;;;3.38;;
31037;SDS011;17702;47.590;7.666;2024-02-15T04:10:06;4.88;;;3.30;;
31037;SDS011;17702;47.590;7.666;2024-02-15T04:12:33;7.05;;;3.83;;
31037;SDS011;17702;47.590;7.666;2024-02-15T04:14:59;5.70;;;3.30;;
31037;SDS011;17702;47.590;7.666;2024-02-15T04:17:30;5.28;;;3.90;;
31037;SDS011;17702;47.590;7.666;2024-02-15T04:19:57;5.05;;;3.45;;
31037;SDS011;17702;47.590;7.666;2024-02-15T04:22:23;4.13;;;2.88;;
31037;SDS011;17702;47.590;7.666;2024-02-15T04:24:49;6.68;;;4.03;;
31037;SDS011;17702;47.590;7.666;2024-02-15T04:27:14;6.45;;;3.60;;
31037;SDS011;17702;47.590;7.666;2024-02-15T04:29:40;4.05;;;3.63;;
31037;SDS011;17702;47.590;7.666;2024-02-15T04:32:09;6.53;;;3.88;;
31037;SDS011;17702;47.590;7.666;2024-02-15T04:34:36;5.82;;;4.30;;
31037;SDS011;17702;47.590;7.666;2024-02-15T04:37:02;5.28;;;4.72;;
31037;SDS011;17702;47.590;7.666;2024-02-15T04:39:31;7.93;;;4.88;;
31037;SDS011;17702;47.590;7.666;2024-02-15T04:41:57;7.22;;;5.32;;
31037;SDS011;17702;47.590;7.666;2024-02-15T04:44:23;8.20;;;5.57;;
31037;SDS011;17702;47.590;7.666;2024-02-15T04:46:52;7.65;;;5.57;;
31037;SDS011;17702;47.590;7.666;2024-02-15T04:49:19;8.60;;;5.50;;
31037;SDS011;17702;47.590;7.666;2024-02-15T04:51:45;9.02;;;5.50;;
31037;SDS011;17702;47.590;7.666;2024-02-15T04:54:10;6.47;;;5.78;;
31037;SDS011;17702;47.590;7.666;2024-02-15T04:56:39;6.18;;;5.43;;
31037;SDS011;17702;47.590;7.666;2024-02-15T04:59:05;6.13;;;5.53;;
31037;SDS011;17702;47.590;7.666;2024-02-15T05:01:36;8.48;;;5.72;;
31037;SDS011;17702;47.590;7.666;2024-02-15T05:04:02;8.82;;;5.88;;
31037;SDS011;17702;47.590;7.666;2024-02-15T05:06:32;9.63;;;4.93;;
31037;SDS011;17702;47.590;7.666;2024-02-15T05:08:58;7.18;;;5.22;;
31037;SDS011;17702;47.590;7.666;2024-02-15T05:11:25;8.80;;;5.13;;
31037;SDS011;17702;47.590;7.666;2024-02-15T05:13:51;9.82;;;5.47;;
31037;SDS011;17702;47.590;7.666;2024-02-15T05:16:17;5.85;;;5.07;;
31037;SDS011;17702;47.590;7.666;2024-02-15T05:18:43;10.57;;;5.03;;
31037;SDS011;17702;47.590;7.666;2024-02-15T05:21:09;7.82;;;5.28;;
31037;SDS011;17702;47.590;7.666;2024-02-15T05:23:35;4.97;;;4.47;;
31037;SDS011;17702;47.590;7.666;2024-02-15T05:26:01;9.90;;;5.28;;
31037;SDS011;17702;47.590;7.666;2024-02-15T05:28:28;10.10;;;5.40;;
31037;SDS011;17702;47.590;7.666;2024-02-15T05:31:08;6.93;;;5.38;;
31037;SDS011;17702;47.590;7.666;2024-02-15T05:33:48;8.43;;;5.25;;
31037;SDS011;17702;47.590;7.666;2024-02-15T05:36:14;6.43;;;5.82;;
31037;SDS011;17702;47.590;7.666;2024-02-15T05:38:40;6.22;;;5.40;;
31037;SDS011;17702;47.590;7.666;2024-02-15T05:41:06;8.73;;;5.47;;
31037;SDS011;17702;47.590;7.666;2024-02-15T05:43:35;9.63;;;5.20;;
31037;SDS011;17702;47.590;7.666;2024-02-15T05:46:02;5.88;;;5.22;;
31037;SDS011;17702;47.590;7.666;2024-02-15T05:48:28;9.98;;;5.35;;
31037;SDS011;17702;47.590;7.666;2024-02-15T05:50:54;8.52;;;5.88;;
31037;SDS011;17702;47.590;7.666;2024-02-15T05:53:20;9.27;;;5.65;;
31037;SDS011;17702;47.590;7.666;2024-02-15T05:55:46;8.80;;;5.18;;
31037;SDS011;17702;47.590;7.666;2024-02-15T05:58:14;6.80;;;5.60;;
31037;SDS011;17702;47.590;7.666;2024-02-15T06:00:40;5.53;;;5.07;;
31037;SDS011;17702;47.590;7.666;2024-02-15T06:03:06;9.00;;;5.43;;
31037;SDS011;17702;47.590;7.666;2024-02-15T06:05:34;9.75;;;5.82;;
31037;SDS011;17702;47.590;7.666;2024-02-15T06:08:00;7.75;;;5.28;;
31037;SDS011;17702;47.590;7.666;2024-02-15T06:10:25;8.48;;;5.28;;
31037;SDS011;17702;47.590;7.666;2024-02-15T06:12:51;12.10;;;5.35;;
31037;SDS011;17702;47.590;7.666;2024-02-15T06:15:17;13.15;;;6.60;;
31037;SDS011;17702;47.590;7.666;2024-02-15T06:17:43;6.90;;;6.18;;
31037;SDS011;17702;47.590;7.666;2024-02-15T06:20:10;13.55;;;6.40;;
31037;SDS011;17702;47.590;7.666;2024-02-15T06:22:39;7.70;;;6.90;;
31037;SDS011;17702;47.590;7.666;2024-02-15T06:25:06;7.45;;;6.75;;
31037;SDS011;17702;47.590;7.666;2024-02-15T06:27:32;10.90;;;6.80;;
31037;SDS011;17702;47.590;7.666;2024-02-15T06:29:57;8.07;;;6.65;;
31037;SDS011;17702;47.590;7.666;2024-02-15T06:32:42;10.10;;;6.88;;
31037;SDS011;17702;47.590;7.666;2024-02-15T06:35:27;9.38;;;6.70;;
31037;SDS011;17702;47.590;7.666;2024-02-15T06:38:11;10.35;;;7.38;;
31037;SDS011;17702;47.590;7.666;2024-02-15T06:40:55;9.60;;;7.38;;
31037;SDS011;17702;47.590;7.666;2024-02-15T06:43:20;10.95;;;7.30;;
31037;SDS011;17702;47.590;7.666;2024-02-15T06:45:46;9.02;;;8.00;;
31037;SDS011;17702;47.590;7.666;2024-02-15T06:48:12;12.27;;;7.53;;
31037;SDS011;17702;47.590;7.666;2024-02-15T06:50:38;10.02;;;7.80;;
31037;SDS011;17702;47.590;7.666;2024-02-15T06:53:04;10.95;;;8.35;;
31037;SDS011;17702;47.590;7.666;2024-02-15T06:55:30;11.50;;;7.60;;
31037;SDS011;17702;47.590;7.666;2024-02-15T06:57:55;12.48;;;7.88;;
31037;SDS011;17702;47.590;7.666;2024-02-15T07:00:21;9.55;;;7.25;;
31037;SDS011;17702;47.590;7.666;2024-02-15T07:02:47;9.30;;;6.97;;
31037;SDS011;17702;47.590;7.666;2024-02-15T07:05:13;9.52;;;7.15;;
31037;SDS011;17702;47.590;7.666;2024-02-15T07:07:39;10.73;;;7.10;;
31037;SDS011;17702;47.590;7.666;2024-02-15T07:10:07;10.15;;;7.72;;
31037;SDS011;17702;47.590;7.666;2024-02-15T07:12:34;9.52;;;7.75;;
31037;SDS011;17702;47.590;7.666;2024-02-15T07:14:59;10.70;;;7.63;;
31037;SDS011;17702;47.590;7.666;2024-02-15T07:17:27;13.07;;;7.72;;
31037;SDS011;17702;47.590;7.666;2024-02-15T07:19:53;13.23;;;7.75;;
31037;SDS011;17702;47.590;7.666;2024-02-15T07:22:18;10.57;;;7.90;;
31037;SDS011;17702;47.590;7.666;2024-02-15T07:24:44;10.23;;;7.97;;
31037;SDS011;17702;47.590;7.666;2024-02-15T07:27:09;13.25;;;8.05;;
31037;SDS011;17702;47.590;7.666;2024-02-15T07:29:36;11.60;;;8.45;;
31037;SDS011;17702;47.590;7.666;2024-02-15T07:32:05;11.50;;;8.63;;
31037;SDS011;17702;47.590;7.666;2024-02-15T07:34:31;11.10;;;7.45;;
31037;SDS011;17702;47.590;7.666;2024-02-15T07:36:58;16.25;;;9.20;;
31037;SDS011;17702;47.590;7.666;2024-02-15T07:39:24;21.80;;;7.95;;
31037;SDS011;17702;47.590;7.666;2024-02-15T07:41:51;18.10;;;9.38;;
31037;SDS011;17702;47.590;7.666;2024-02-15T07:44:17;13.98;;;9.55;;
31037;SDS011;17702;47.590;7.666;2024-02-15T07:46:42;13.27;;;9.48;;
31037;SDS011;17702;47.590;7.666;2024-02-15T07:49:08;16.83;;;9.43;;
31037;SDS011;17702;47.590;7.666;2024-02-15T07:51:34;15.02;;;9.95;;
31037;SDS011;17702;47.590;7.666;2024-02-15T07:54:01;15.43;;;9.65;;
31037;SDS011;17702;47.590;7.666;2024-02-15T07:56:26;16.33;;;9.65;;
31037;SDS011;17702;47.590;7.666;2024-02-15T07:58:52;14.45;;;9.30;;
31037;SDS011;17702;47.590;7.666;2024-02-15T08:01:18;12.30;;;8.40;;
31037;SDS011;17702;47.590;7.666;2024-02-15T08:03:46;12.57;;;9.43;;
31037;SDS011;17702;47.590;7.666;2024-02-15T08:06:13;15.80;;;9.35;;
31037;SDS011;17702;47.590;7.666;2024-02-15T08:08:40;16.80;;;9.35;;
31037;SDS011;17702;47.590;7.666;2024-02-15T08:11:11;16.70;;;10.20;;
31037;SDS011;17702;47.590;7.666;2024-02-15T08:13:43;15.63;;;8.45;;
31037;SDS011;17702;47.590;7.666;2024-02-15T08:16:21;14.63;;;9.55;;
31037;SDS011;17702;47.590;7.666;2024-02-15T08:18:48;11.20;;;8.55;;
31037;SDS011;17702;47.590;7.666;2024-02-15T08:21:17;12.73;;;8.60;;
31037;SDS011;17702;47.590;7.666;2024-02-15T08:23:42;16.60;;;9.57;;
31037;SDS011;17702;47.590;7.666;2024-02-15T08:26:08;12.45;;;9.13;;
31037;SDS011;17702;47.590;7.666;2024-02-15T08:28:36;12.10;;;9.25;;
31037;SDS011;17702;47.590;7.666;2024-02-15T08:31:01;14.60;;;8.52;;
31037;SDS011;17702;47.590;7.666;2024-02-15T08:33:28;11.20;;;9.10;;
31037;SDS011;17702;47.590;7.666;2024-02-15T08:35:55;15.45;;;8.48;;
31037;SDS011;17702;47.590;7.666;2024-02-15T08:38:21;12.95;;;8.40;;
31037;SDS011;17702;47.590;7.666;2024-02-15T08:40:47;15.30;;;8.27;;
31037;SDS011;17702;47.590;7.666;2024-02-15T08:43:13;14.18;;;8.48;;
31037;SDS011;17702;47.590;7.666;2024-02-15T08:45:40;16.65;;;9.00;;
31037;SDS011;17702;47.590;7.666;2024-02-15T08:48:07;11.30;;;8.50;;
31037;SDS011;17702;47.590;7.666;2024-02-15T08:50:32;13.95;;;8.77;;
31037;SDS011;17702;47.590;7.666;2024-02-15T08:52:58;12.85;;;8.27;;
31037;SDS011;17702;47.590;7.666;2024-02-15T08:55:24;12.18;;;7.72;;
31037;SDS011;17702;47.590;7.666;2024-02-15T08:57:52;8.80;;;7.90;;
31037;SDS011;17702;47.590;7.666;2024-02-15T09:00:18;13.65;;;8.93;;
31037;SDS011;17702;47.590;7.666;2024-02-15T09:02:43;13.73;;;8.35;;
31037;SDS011;17702;47.590;7.666;2024-02-15T09:05:09;13.88;;;8.15;;
31037;SDS011;17702;47.590;7.666;2024-02-15T09:07:38;14.38;;;8.50;;
31037;SDS011;17702;47.590;7.666;2024-02-15T09:10:06;12.93;;;7.57;;
31037;SDS011;17702;47.590;7.666;2024-02-15T09:12:34;9.23;;;8.25;;
31037;SDS011;17702;47.590;7.666;2024-02-15T09:15:01;9.95;;;7.60;;
31037;SDS011;17702;47.590;7.666;2024-02-15T09:17:28;11.00;;;8.70;;
31037;SDS011;17702;47.590;7.666;2024-02-15T09:19:56;13.05;;;8.07;;
31037;SDS011;17702;47.590;7.666;2024-02-15T09:22:22;11.05;;;8.18;;
31037;SDS011;17702;47.590;7.666;2024-02-15T09:24:48;10.75;;;7.13;;
31037;SDS011;17702;47.590;7.666;2024-02-15T09:27:13;12.90;;;8.35;;
31037;SDS011;17702;47.590;7.666;2024-02-15T09:29:39;14.45;;;7.53;;
31037;SDS011;17702;47.590;7.666;2024-02-15T09:32:05;9.93;;;7.55;;
31037;SDS011;17702;47.590;7.666;2024-02-15T09:34:31;11.77;;;5.70;;
31037;SDS011;17702;47.590;7.666;2024-02-15T09:36:57;10.38;;;6.38;;
31037;SDS011;17702;47.590;7.666;2024-02-15T09:39:23;9.95;;;5.78;;
31037;SDS011;17702;47.590;7.666;2024-02-15T09:41:49;9.13;;;6.90;;
31037;SDS011;17702;47.590;7.666;2024-02-15T09:44:23;10.95;;;6.80;;
31037;SDS011;17702;47.590;7.666;2024-02-15T09:46:53;12.07;;;6.20;;
31037;SDS011;17702;47.590;7.666;2024-02-15T09:49:37;7.93;;;6.75;;
31037;SDS011;17702;47.590;7.666;2024-02-15T09:52:07;10.15;;;6.80;;
31037;SDS011;17702;47.590;7.666;2024-02-15T09:54:40;8.02;;;6.40;;
31037;SDS011;17702;47.590;7.666;2024-02-15T09:57:10;9.05;;;6.82;;
31037;SDS011;17702;47.590;7.666;2024-02-15T09:59:36;7.03;;;5.20;;
31037;SDS011;17702;47.590;7.666;2024-02-15T10:02:06;6.90;;;5.38;;
31037;SDS011;17702;47.590;7.666;2024-02-15T10:04:36;7.55;;;5.93;;
31037;SDS011;17702;47.590;7.666;2024-02-15T10:07:02;7.05;;;5.05;;
31037;SDS011;17702;47.590;7.666;2024-02-15T10:09:31;8.93;;;5.65;;
31037;SDS011;17702;47.590;7.666;2024-02-15T10:11:58;10.63;;;8.35;;
31037;SDS011;17702;47.590;7.666;2024-02-15T10:14:25;11.18;;;9.15;;
31037;SDS011;17702;47.590;7.666;2024-02-15T10:16:54;12.93;;;11.63;;
31037;SDS011;17702;47.590;7.666;2024-02-15T10:19:20;6.22;;;5.63;;
31037;SDS011;17702;47.590;7.666;2024-02-15T10:21:53;12.90;;;5.70;;
31037;SDS011;17702;47.590;7.666;2024-02-15T10:24:23;7.32;;;5.05;;
31037;SDS011;17702;47.590;7.666;2024-02-15T10:26:49;6.85;;;5.93;;
31037;SDS011;17702;47.590;7.666;2024-02-15T10:29:15;8.32;;;5.30;;
31037;SDS011;17702;47.590;7.666;2024-02-15T10:31:55;6.65;;;5.18;;
31037;SDS011;17702;47.590;7.666;2024-02-15T10:36:50;8.85;;;5.70;;
31037;SDS011;17702;47.590;7.666;2024-02-15T10:39:16;4.97;;;4.45;;
31037;SDS011;17702;47.590;7.666;2024-02-15T10:41:47;12.02;;;5.20;;
31037;SDS011;17702;47.590;7.666;2024-02-15T10:44:21;5.97;;;5.38;;
31037;SDS011;17702;47.590;7.666;2024-02-15T10:46:49;5.57;;;5.03;;
31037;SDS011;17702;47.590;7.666;2024-02-15T10:49:21;10.45;;;5.18;;
31037;SDS011;17702;47.590;7.666;2024-02-15T10:51:49;6.37;;;5.20;;
31037;SDS011;17702;47.590;7.666;2024-02-15T10:54:19;7.50;;;4.43;;
31037;SDS011;17702;47.590;7.666;2024-02-15T10:56:53;6.13;;;5.05;;
31037;SDS011;17702;47.590;7.666;2024-02-15T10:59:21;5.53;;;4.78;;
31037;SDS011;17702;47.590;7.666;2024-02-15T11:01:53;7.95;;;5.22;;
31037;SDS011;17702;47.590;7.666;2024-02-15T11:04:23;5.85;;;5.07;;
31037;SDS011;17702;47.590;7.666;2024-02-15T11:06:57;5.95;;;5.05;;
31037;SDS011;17702;47.590;7.666;2024-02-15T11:09:23;4.68;;;4.28;;
31037;SDS011;17702;47.590;7.666;2024-02-15T11:11:52;4.70;;;4.25;;
31037;SDS011;17702;47.590;7.666;2024-02-15T11:14:28;5.00;;;4.50;;
31037;SDS011;17702;47.590;7.666;2024-02-15T11:16:55;6.40;;;4.43;;
31037;SDS011;17702;47.590;7.666;2024-02-15T11:22:00;4.53;;;4.13;;
31037;SDS011;17702;47.590;7.666;2024-02-15T11:24:31;5.20;;;4.70;;
31037;SDS011;17702;47.590;7.666;2024-02-15T11:26:58;8.13;;;4.45;;
31037;SDS011;17702;47.590;7.666;2024-02-15T11:29:47;5.53;;;5.00;;
31037;SDS011;17702;47.590;7.666;2024-02-15T11:40:16;3.92;;;3.50;;
31037;SDS011;17702;47.590;7.666;2024-02-15T11:42:43;6.55;;;4.63;;
31037;SDS011;17702;47.590;7.666;2024-02-15T11:45:09;6.68;;;4.03;;
31037;SDS011;17702;47.590;7.666;2024-02-15T11:47:37;5.40;;;3.72;;
31037;SDS011;17702;47.590;7.666;2024-02-15T11:50:06;6.18;;;4.32;;
31037;SDS011;17702;47.590;7.666;2024-02-15T11:52:37;6.18;;;3.60;;
31037;SDS011;17702;47.590;7.666;2024-02-15T11:55:14;12.05;;;6.80;;
31037;SDS011;17702;47.590;7.666;2024-02-15T11:57:44;5.97;;;3.88;;
31037;SDS011;17702;47.590;7.666;2024-02-15T12:00:41;5.70;;;3.92;;
31037;SDS011;17702;47.590;7.666;2024-02-15T12:03:26;4.47;;;3.75;;
31037;SDS011;17702;47.590;7.666;2024-02-15T12:06:10;7.75;;;4.38;;
31037;SDS011;17702;47.590;7.666;2024-02-15T12:08:54;5.68;;;3.72;;
31037;SDS011;17702;47.590;7.666;2024-02-15T12:11:39;4.18;;;3.78;;
31037;SDS011;17702;47.590;7.666;2024-02-15T12:14:24;4.63;;;4.03;;
31037;SDS011;17702;47.590;7.666;2024-02-15T12:17:10;9.40;;;3.47;;
31037;SDS011;17702;47.590;7.666;2024-02-15T12:19:56;9.98;;;3.60;;
31037;SDS011;17702;47.590;7.666;2024-02-15T12:22:31;6.25;;;3.67;;
31037;SDS011;17702;47.590;7.666;2024-02-15T12:25:01;7.93;;;4.60;;
31037;SDS011;17702;47.590;7.666;2024-02-15T12:27:37;6.05;;;4.25;;
31037;SDS011;17702;47.590;7.666;2024-02-15T12:30:04;6.97;;;3.38;;
31037;SDS011;17702;47.590;7.666;2024-02-15T12:32:32;4.32;;;3.88;;
31037;SDS011;17702;47.590;7.666;2024-02-15T12:35:16;8.10;;;4.72;;
31037;SDS011;17702;47.590;7.666;2024-02-15T12:37:47;6.97;;;3.33;;
31037;SDS011;17702;47.590;7.666;2024-02-15T12:40:30;5.55;;;3.65;;
31037;SDS011;17702;47.590;7.666;2024-02-15T12:42:59;6.03;;;3.95;;
31037;SDS011;17702;47.590;7.666;2024-02-15T12:45:25;5.40;;;3.75;;
31037;SDS011;17702;47.590;7.666;2024-02-15T12:47:54;10.73;;;3.85;;
31037;SDS011;17702;47.590;7.666;2024-02-15T12:50:22;7.60;;;4.20;;
31037;SDS011;17702;47.590;7.666;2024-02-15T12:52:49;6.80;;;4.80;;
31037;SDS011;17702;47.590;7.666;2024-02-15T12:55:16;4.78;;;3.95;;
31037;SDS011;17702;47.590;7.666;2024-02-15T12:57:48;8.80;;;4.07;;
31037;SDS011;17702;47.590;7.666;2024-02-15T13:00:25;7.93;;;4.38;;
31037;SDS011;17702;47.590;7.666;2024-02-15T13:02:54;4.32;;;3.80;;
31037;SDS011;17702;47.590;7.666;2024-02-15T13:05:21;4.72;;;3.53;;
31037;SDS011;17702;47.590;7.666;2024-02-15T13:07:48;6.03;;;3.92;;
31037;SDS011;17702;47.590;7.666;2024-02-15T13:10:14;4.97;;;4.22;;
31037;SDS011;17702;47.590;7.666;2024-02-15T13:12:40;4.10;;;3.80;;
31037;SDS011;17702;47.590;7.666;2024-02-15T13:15:08;4.57;;;3.65;;
31037;SDS011;17702;47.590;7.666;2024-02-15T13:17:37;5.85;;;3.72;;
31037;SDS011;17702;47.590;7.666;2024-02-15T13:20:03;5.82;;;5.28;;
31037;SDS011;17702;47.590;7.666;2024-02-15T13:22:32;7.63;;;5.13;;
31037;SDS011;17702;47.590;7.666;2024-02-15T13:25:01;13.05;;;9.68;;
31037;SDS011;17702;47.590;7.666;2024-02-15T13:27:28;5.72;;;3.45;;
31037;SDS011;17702;47.590;7.666;2024-02-15T13:29:54;4.90;;;4.50;;
31037;SDS011;17702;47.590;7.666;2024-02-15T13:32:20;3.58;;;3.28;;
31037;SDS011;17702;47.590;7.666;2024-02-15T13:34:48;6.45;;;4.13;;
31037;SDS011;17702;47.590;7.666;2024-02-15T13:37:21;6.38;;;4.28;;
31037;SDS011;17702;47.590;7.666;2024-02-15T13:39:48;6.82;;;3.60;;
31037;SDS011;17702;47.590;7.666;2024-02-15T13:42:14;3.95;;;3.13;;
31037;SDS011;17702;47.590;7.666;2024-02-15T13:44:41;7.32;;;3.35;;
31037;SDS011;17702;47.590;7.666;2024-02-15T13:47:12;3.47;;;3.17;;
31037;SDS011;17702;47.590;7.666;2024-02-15T13:49:38;6.50;;;3.50;;
31037;SDS011;17702;47.590;7.666;2024-02-15T13:52:05;4.88;;;3.17;;
31037;SDS011;17702;47.590;7.666;2024-02-15T13:54:31;6.05;;;3.42;;
31037;SDS011;17702;47.590;7.666;2024-02-15T13:56:58;4.63;;;2.63;;
31037;SDS011;17702;47.590;7.666;2024-02-15T13:59:27;5.85;;;2.85;;
31037;SDS011;17702;47.590;7.666;2024-02-15T14:01:56;3.40;;;3.10;;
31037;SDS011;17702;47.590;7.666;2024-02-15T14:04:21;3.15;;;2.65;;
31037;SDS011;17702;47.590;7.666;2024-02-15T14:06:47;5.25;;;2.70;;
31037;SDS011;17702;47.590;7.666;2024-02-15T14:09:13;5.53;;;3.08;;
31037;SDS011;17702;47.590;7.666;2024-02-15T14:11:39;4.47;;;2.67;;
31037;SDS011;17702;47.590;7.666;2024-02-15T14:14:07;6.40;;;3.20;;
31037;SDS011;17702;47.590;7.666;2024-02-15T14:16:33;7.25;;;4.07;;
31037;SDS011;17702;47.590;7.666;2024-02-15T14:18:58;4.85;;;3.97;;
31037;SDS011;17702;47.590;7.666;2024-02-15T14:21:24;6.00;;;5.35;;
31037;SDS011;17702;47.590;7.666;2024-02-15T14:23:50;7.55;;;5.97;;
31037;SDS011;17702;47.590;7.666;2024-02-15T14:26:16;14.30;;;6.78;;
31037;SDS011;17702;47.590;7.666;2024-02-15T14:28:42;15.52;;;6.40;;
31037;SDS011;17702;47.590;7.666;2024-02-15T14:31:10;9.65;;;6.00;;
31037;SDS011;17702;47.590;7.666;2024-02-15T14:33:54;8.00;;;5.35;;
31037;SDS011;17702;47.590;7.666;2024-02-15T14:36:20;8.30;;;5.00;;
31037;SDS011;17702;47.590;7.666;2024-02-15T14:38:45;9.70;;;4.60;;
31037;SDS011;17702;47.590;7.666;2024-02-15T14:41:12;5.10;;;4.53;;
31037;SDS011;17702;47.590;7.666;2024-02-15T14:43:37;5.50;;;4.35;;
31037;SDS011;17702;47.590;7.666;2024-02-15T14:46:03;3.50;;;3.20;;
31037;SDS011;17702;47.590;7.666;2024-02-15T14:48:33;6.65;;;3.05;;
31037;SDS011;17702;47.590;7.666;2024-02-15T14:50:59;6.47;;;2.83;;
31037;SDS011;17702;47.590;7.666;2024-02-15T14:53:25;3.83;;;2.65;;
31037;SDS011;17702;47.590;7.666;2024-02-15T14:55:52;3.47;;;2.70;;
31037;SDS011;17702;47.590;7.666;2024-02-15T14:58:19;3.67;;;2.58;;
31037;SDS011;17702;47.590;7.666;2024-02-15T15:00:45;4.07;;;2.83;;
31037;SDS011;17702;47.590;7.666;2024-02-15T15:03:11;3.53;;;2.55;;
31037;SDS011;17702;47.590;7.666;2024-02-15T15:05:38;3.15;;;2.08;;